Time;durP1;ratioP1;P1;durP2;ratioP2;P2;SDS_P1;SDS_P2;PMS_P1;PMS_P2;Temp;Humidity;BMP_temperature;BMP_pressure;BME280_temperature;BME280_humidity;BME280_pressure;Samples;Min_cycle;Max_cycle;Signal;HPM_P1;HPM_P2
2022/06/26 00:00:52;;;;;;;7.00;4.30;;;;;;;22.49;51.02;100376.91;105484;1276;137852;-88
2022/06/26 00:03:20;;;;;;;6.90;4.30;;;;;;;22.47;51.64;100373.09;105500;1276;100050;-87
2022/06/26 00:05:48;;;;;;;6.60;4.30;;;;;;;22.44;51.57;100380.18;105352;1276;139817;-86
2022/06/26 00:08:16;;;;;;;7.50;4.70;;;;;;;22.43;51.69;100376.11;105558;1277;94227;-87
2022/06/26 00:10:45;;;;;;;7.30;4.50;;;;;;;22.39;51.66;100385.81;105693;1276;94840;-87
2022/06/26 00:13:14;;;;;;;7.20;4.70;;;;;;;22.36;52.00;100383.30;105423;1277;138219;-88
2022/06/26 00:15:45;;;;;;;6.40;4.00;;;;;;;22.31;51.97;100386.36;105601;1276;99935;-88
2022/06/26 00:18:14;;;;;;;8.80;4.30;;;;;;;22.28;51.98;100384.95;105686;1276;138588;-88
2022/06/26 00:20:43;;;;;;;6.90;4.50;;;;;;;22.25;52.08;100388.65;105466;1276;94732;-87
2022/06/26 00:23:11;;;;;;;8.50;4.60;;;;;;;22.22;51.93;100387.41;105381;1276;94354;-87
2022/06/26 00:25:39;;;;;;;6.70;4.40;;;;;;;22.21;52.11;100390.21;105349;1276;107583;-88
2022/06/26 00:28:07;;;;;;;7.30;4.20;;;;;;;22.17;52.26;100390.48;105378;1276;99595;-90
2022/06/26 00:30:37;;;;;;;7.10;4.70;;;;;;;22.14;52.23;100392.55;106872;1276;137164;-90
2022/06/26 00:33:05;;;;;;;7.20;4.50;;;;;;;22.10;52.26;100390.85;107513;1276;92822;-89
2022/06/26 00:35:34;;;;;;;8.40;5.10;;;;;;;22.11;52.39;100391.52;107434;1276;137941;-90
2022/06/26 00:38:02;;;;;;;7.00;4.70;;;;;;;22.09;52.10;100393.47;107341;1276;106058;-89
2022/06/26 00:40:30;;;;;;;7.40;4.40;;;;;;;22.07;52.25;100395.60;105860;1276;97088;-89
2022/06/26 00:42:58;;;;;;;8.20;4.60;;;;;;;22.08;52.02;100400.77;104939;1279;138085;-89
2022/06/26 00:45:27;;;;;;;6.70;4.40;;;;;;;22.08;52.24;100400.77;105213;1278;94372;-89
2022/06/26 00:47:55;;;;;;;7.00;4.50;;;;;;;22.07;52.02;100401.94;105300;1276;139152;-88
2022/06/26 00:50:23;;;;;;;7.40;4.40;;;;;;;22.06;52.26;100404.16;105417;1276;107884;-88
2022/06/26 00:52:56;;;;;;;6.80;4.60;;;;;;;22.02;52.53;100401.39;105658;1277;97044;-88
2022/06/26 00:55:25;;;;;;;7.10;4.70;;;;;;;21.99;52.55;100399.09;105263;1276;138760;-90
2022/06/26 00:57:53;;;;;;;7.40;4.90;;;;;;;21.93;52.64;100405.17;105397;1277;94297;-90
2022/06/26 01:00:23;;;;;;;7.50;5.00;;;;;;;21.87;52.78;100406.09;105556;1276;137963;-88
2022/06/26 01:02:51;;;;;;;7.10;4.40;;;;;;;21.84;52.85;100410.46;105431;1276;106247;-88
2022/06/26 01:05:20;;;;;;;7.00;4.70;;;;;;;21.82;52.90;100412.22;105472;1276;139514;-88
2022/06/26 01:07:49;;;;;;;8.20;4.80;;;;;;;21.81;52.59;100417.02;105605;1276;107943;-89
2022/06/26 01:10:18;;;;;;;8.80;4.50;;;;;;;21.78;52.70;100413.63;105457;1276;94632;-90
2022/06/26 01:12:48;;;;;;;7.00;4.80;;;;;;;21.77;52.54;100420.38;105357;1275;138510;-89
2022/06/26 01:15:17;;;;;;;8.20;4.40;;;;;;;21.72;52.87;100415.67;105575;1276;107279;-89
2022/06/26 01:17:46;;;;;;;7.50;4.80;;;;;;;21.73;52.61;100414.91;105632;1276;138599;-89
2022/06/26 01:20:23;;;;;;;9.00;4.60;;;;;;;21.69;52.75;100415.35;105523;1276;108296;-90
2022/06/26 01:23:05;;;;;;;8.00;5.00;;;;;;;21.68;52.75;100417.24;105452;1276;94671;-90
2022/06/26 01:25:46;;;;;;;8.40;4.80;;;;;;;21.68;52.68;100416.54;105497;1276;138041;-89
2022/06/26 01:28:18;;;;;;;8.20;4.60;;;;;;;21.66;52.75;100414.70;105454;1276;107314;-88
2022/06/26 01:30:46;;;;;;;8.00;4.60;;;;;;;21.63;52.79;100418.73;105490;1276;138614;-88
2022/06/26 01:33:20;;;;;;;8.40;5.10;;;;;;;21.60;52.99;100418.90;105425;1276;107734;-90
2022/06/26 01:35:49;;;;;;;7.00;4.70;;;;;;;21.51;53.00;100421.16;105235;1278;142776;-88
2022/06/26 01:38:22;;;;;;;8.30;4.90;;;;;;;21.46;53.19;100426.57;105583;1278;94385;-89
2022/06/26 01:41:12;;;;;;;7.60;5.00;;;;;;;21.40;53.17;100422.65;105673;1276;107447;-88
2022/06/26 01:43:40;;;;;;;7.90;4.70;;;;;;;21.37;53.36;100427.54;105362;1274;98889;-88
2022/06/26 01:46:10;;;;;;;8.10;4.80;;;;;;;21.36;53.28;100425.48;105276;1276;107750;-87
2022/06/26 01:48:39;;;;;;;7.40;4.80;;;;;;;21.35;53.21;100428.28;105180;1276;138044;-88
2022/06/26 01:51:10;;;;;;;8.40;4.90;;;;;;;21.31;53.32;100435.57;105586;1276;94225;-89
2022/06/26 01:53:44;;;;;;;7.60;4.80;;;;;;;21.29;53.60;100435.36;105282;1276;137312;-88
2022/06/26 01:56:13;;;;;;;7.60;4.70;;;;;;;21.28;53.51;100434.51;105478;1276;99818;-89
2022/06/26 01:58:45;;;;;;;7.50;4.60;;;;;;;21.23;53.76;100438.09;105415;1276;106284;-88
2022/06/26 02:01:20;;;;;;;9.50;4.60;;;;;;;21.18;53.88;100438.45;105279;1276;138565;-88
2022/06/26 02:03:50;;;;;;;6.80;4.70;;;;;;;21.13;53.92;100437.73;105470;1276;94302;-88
2022/06/26 02:06:18;;;;;;;6.90;5.00;;;;;;;21.12;53.73;100441.79;105398;1276;137588;-87
2022/06/26 02:08:46;;;;;;;7.90;4.90;;;;;;;21.10;53.74;100442.07;105578;1276;98293;-85
2022/06/26 02:14:02;;;;;;;7.90;4.90;;;;;;;21.10;53.95;100445.14;105598;1279;94330;-87
2022/06/26 02:16:42;;;;;;;7.70;5.00;;;;;;;21.10;53.81;100445.36;105509;1279;94258;-90
2022/06/26 02:19:52;;;;;;;8.00;4.90;;;;;;;21.06;54.12;100445.22;105900;1277;109221;-89
2022/06/26 02:22:20;;;;;;;8.00;4.80;;;;;;;21.03;53.90;100449.77;105447;1278;97050;-89
2022/06/26 02:24:48;;;;;;;7.30;4.60;;;;;;;21.02;54.23;100446.75;105290;1276;138204;-88
2022/06/26 02:27:17;;;;;;;7.60;5.10;;;;;;;20.97;54.14;100448.75;105593;1276;94304;-88
2022/06/26 02:29:46;;;;;;;8.50;4.80;;;;;;;20.95;54.40;100451.80;105252;1276;138287;-89
2022/06/26 02:32:15;;;;;;;7.30;4.70;;;;;;;20.90;54.52;100451.21;105497;1276;106469;-87
2022/06/26 02:35:07;;;;;;;8.00;4.70;;;;;;;20.87;54.67;100451.55;105461;1276;99412;-88
2022/06/26 02:37:38;;;;;;;8.40;5.40;;;;;;;20.85;54.72;100453.73;105453;1276;140494;-89
2022/06/26 02:40:07;;;;;;;7.90;5.00;;;;;;;20.81;54.94;100459.07;105418;1276;94820;-89
2022/06/26 02:42:38;;;;;;;7.10;4.90;;;;;;;20.78;55.08;100455.26;105458;1276;138485;-89
2022/06/26 02:45:07;;;;;;;7.90;5.10;;;;;;;20.76;54.89;100462.11;105489;1276;106678;-87
2022/06/26 02:47:36;;;;;;;9.80;5.00;;;;;;;20.76;55.42;100462.66;105341;1276;138652;-89
2022/06/26 02:50:06;;;;;;;7.70;5.00;;;;;;;20.75;55.23;100462.71;105613;1276;107736;-88
2022/06/26 02:52:36;;;;;;;7.70;5.10;;;;;;;20.72;55.05;100464.15;105608;1276;94346;-87
2022/06/26 02:55:06;;;;;;;8.90;4.80;;;;;;;20.74;55.49;100463.36;105550;1276;138326;-88
2022/06/26 02:57:37;;;;;;;7.80;4.70;;;;;;;20.71;55.39;100465.67;105549;1276;107275;-88
2022/06/26 03:00:09;;;;;;;8.20;4.40;;;;;;;20.75;55.24;100467.23;105456;1276;138875;-88
2022/06/26 03:02:40;;;;;;;9.70;4.90;;;;;;;20.80;55.38;100467.44;105633;1276;108416;-89
2022/06/26 03:05:11;;;;;;;7.10;4.80;;;;;;;20.82;54.95;100469.44;105508;1276;94310;-88
2022/06/26 03:08:01;;;;;;;7.10;4.60;;;;;;;20.82;55.45;100474.84;105576;1276;94785;-89
2022/06/26 03:11:09;;;;;;;7.30;4.60;;;;;;;20.84;54.94;100477.80;105793;1275;107796;-88
2022/06/26 03:13:39;;;;;;;8.40;5.40;;;;;;;20.91;55.35;100475.55;105753;1276;139369;-88
2022/06/26 03:16:28;;;;;;;7.80;4.70;;;;;;;20.93;55.32;100472.53;105756;1276;109120;-89
2022/06/26 03:19:02;;;;;;;8.20;4.80;;;;;;;20.94;55.18;100472.41;105666;1276;140411;-89
2022/06/26 03:21:55;;;;;;;7.20;4.70;;;;;;;20.98;55.00;100476.70;105659;1276;94597;-89
2022/06/26 03:24:24;;;;;;;8.50;4.90;;;;;;;21.00;55.01;100476.69;105515;1276;137109;-87
2022/06/26 03:27:02;;;;;;;7.90;4.80;;;;;;;21.05;55.06;100471.48;105537;1276;97253;-90
2022/06/26 03:29:54;;;;;;;7.70;4.90;;;;;;;21.03;55.43;100477.59;105420;1276;137652;-87
2022/06/26 03:32:22;;;;;;;8.30;5.10;;;;;;;21.00;55.57;100475.94;105667;1276;94354;-86
2022/06/26 03:35:00;;;;;;;9.80;5.20;;;;;;;21.03;55.52;100477.17;105609;1276;94632;-87
2022/06/26 03:37:29;;;;;;;8.00;5.30;;;;;;;21.02;55.70;100483.05;105681;1275;138041;-89
2022/06/26 03:40:18;;;;;;;7.60;5.30;;;;;;;21.04;55.64;100489.05;105640;1276;100795;-90
2022/06/26 03:42:47;;;;;;;8.80;5.40;;;;;;;21.08;55.66;100488.84;105587;1276;139298;-89
2022/06/26 03:45:17;;;;;;;8.20;5.30;;;;;;;21.11;55.66;100491.85;105472;1276;94858;-90
2022/06/26 03:47:45;;;;;;;7.50;5.30;;;;;;;21.16;55.16;100494.77;105251;1276;139323;-91
2022/06/26 03:50:37;;;;;;;8.20;5.40;;;;;;;21.20;55.14;100494.08;105610;1276;107339;-89
2022/06/26 03:53:07;;;;;;;8.70;5.30;;;;;;;21.28;55.09;100501.54;105617;1276;99847;-87
2022/06/26 03:55:38;;;;;;;9.40;5.30;;;;;;;21.34;55.41;100498.53;105540;1276;138208;-88
2022/06/26 03:58:09;;;;;;;8.40;5.50;;;;;;;21.36;55.29;100499.83;105629;1276;94423;-87
2022/06/26 04:00:37;;;;;;;9.00;5.30;;;;;;;21.43;55.33;100500.83;105413;1276;138743;-90
2022/06/26 04:03:13;;;;;;;8.70;5.60;;;;;;;21.48;55.44;100502.65;105492;1277;107707;-88
2022/06/26 04:05:42;;;;;;;8.90;5.90;;;;;;;21.50;54.53;100501.81;105417;1276;138401;-88
2022/06/26 04:08:12;;;;;;;8.20;5.90;;;;;;;21.53;54.13;100503.77;105381;1276;107760;-89
2022/06/26 04:10:47;;;;;;;8.40;5.40;;;;;;;21.58;54.31;100502.17;105535;1276;94325;-88
2022/06/26 04:13:30;;;;;;;9.00;5.70;;;;;;;21.61;54.76;100504.69;105156;1276;138168;-88
2022/06/26 04:15:58;;;;;;;9.70;6.10;;;;;;;21.63;53.73;100505.07;105510;1276;107461;-89
2022/06/26 04:18:46;;;;;;;8.80;6.10;;;;;;;21.70;53.82;100505.10;106549;1276;138822;-90
2022/06/26 04:21:15;;;;;;;8.50;6.00;;;;;;;21.76;53.50;100510.11;106594;1276;106435;-88
2022/06/26 04:23:56;;;;;;;9.40;5.80;;;;;;;21.81;53.62;100510.64;105266;1276;138268;-90
2022/06/26 04:26:24;;;;;;;9.20;5.70;;;;;;;21.88;53.03;100512.15;105502;1276;94286;-89
2022/06/26 04:28:55;;;;;;;10.60;6.40;;;;;;;21.95;53.44;100515.28;105183;1276;106048;-88
2022/06/26 04:31:23;;;;;;;9.60;5.90;;;;;;;22.00;52.75;100520.16;105287;1276;138442;-90
2022/06/26 04:33:54;;;;;;;9.00;6.00;;;;;;;22.06;52.45;100519.88;105320;1276;106573;-89
2022/06/26 04:36:24;;;;;;;8.40;6.30;;;;;;;22.14;53.10;100520.95;105231;1276;138094;-87
2022/06/26 04:38:55;;;;;;;9.50;5.60;;;;;;;22.23;53.31;100519.40;105447;1276;94347;-89
2022/06/26 04:41:38;;;;;;;9.00;5.80;;;;;;;22.31;53.29;100521.16;105233;1276;137159;-89
2022/06/26 04:44:12;;;;;;;9.00;5.60;;;;;;;22.38;53.01;100524.13;105255;1278;98367;-89
2022/06/26 04:46:42;;;;;;;9.00;5.50;;;;;;;22.44;53.19;100522.04;105328;1276;107731;-87
2022/06/26 04:49:31;;;;;;;8.80;5.80;;;;;;;22.51;52.30;100525.52;105338;1276;139280;-92
2022/06/26 04:52:09;;;;;;;8.60;5.50;;;;;;;22.58;51.57;100525.87;105331;1276;95553;-88
2022/06/26 04:54:42;;;;;;;8.90;5.50;;;;;;;22.66;51.53;100531.98;105528;1276;137774;-88
2022/06/26 04:57:13;;;;;;;7.90;5.00;;;;;;;22.77;51.59;100530.27;105636;1276;98264;-87
2022/06/26 05:00:11;;;;;;;9.50;5.30;;;;;;;22.86;51.39;100528.62;105291;1276;140233;-90
2022/06/26 05:02:48;;;;;;;8.10;4.70;;;;;;;22.94;51.50;100531.53;105532;1276;94838;-90
2022/06/26 05:05:43;;;;;;;7.40;4.30;;;;;;;23.04;50.82;100534.36;105336;1276;141462;-89
2022/06/26 05:08:21;;;;;;;8.50;4.70;;;;;;;23.15;50.65;100536.41;105579;1276;107862;-89
2022/06/26 05:10:49;;;;;;;7.60;4.70;;;;;;;23.24;50.61;100537.42;105486;1276;98840;-87
2022/06/26 05:13:43;;;;;;;7.50;4.30;;;;;;;23.33;49.87;100539.23;105252;1276;137962;-90
2022/06/26 05:16:31;;;;;;;7.00;4.10;;;;;;;23.43;49.52;100537.91;105760;1276;94395;-88
2022/06/26 05:19:03;;;;;;;7.80;4.40;;;;;;;23.56;49.87;100537.43;105494;1276;138029;-88
2022/06/26 05:21:33;;;;;;;7.10;4.50;;;;;;;23.67;48.88;100545.48;105487;1276;107341;-89
2022/06/26 05:24:05;;;;;;;7.60;4.00;;;;;;;23.75;48.93;100544.13;105545;1276;138568;-88
2022/06/26 05:26:33;;;;;;;7.50;3.90;;;;;;;23.83;48.57;100547.39;105514;1276;107707;-88
2022/06/26 05:29:22;;;;;;;6.00;3.90;;;;;;;23.96;49.12;100550.77;105368;1276;94870;-88
2022/06/26 05:31:54;;;;;;;7.10;4.30;;;;;;;24.09;48.73;100546.52;105522;1276;94815;-90
2022/06/26 05:34:22;;;;;;;7.20;4.00;;;;;;;24.14;48.50;100550.09;105489;1277;107380;-88
2022/06/26 05:36:50;;;;;;;7.60;4.20;;;;;;;24.18;47.74;100550.30;105216;1276;138407;-89
2022/06/26 05:39:23;;;;;;;7.20;4.00;;;;;;;24.27;48.61;100556.52;105359;1276;109884;-89
2022/06/26 05:41:56;;;;;;;8.30;3.70;;;;;;;24.34;47.68;100558.23;105295;1276;137344;-89
2022/06/26 05:44:29;;;;;;;6.70;4.00;;;;;;;24.44;47.50;100568.49;105182;1276;94945;-88
2022/06/26 05:47:00;;;;;;;7.50;3.90;;;;;;;24.52;46.62;100570.56;105257;1276;108502;-89
2022/06/26 05:49:40;;;;;;;6.80;3.80;;;;;;;24.58;46.74;100570.82;105444;1276;139606;-88
2022/06/26 05:52:11;;;;;;;6.80;4.00;;;;;;;24.65;46.77;100571.16;105609;1276;106951;-89
2022/06/26 05:54:54;;;;;;;8.10;3.90;;;;;;;24.76;46.81;100570.83;105300;1276;139191;-88
2022/06/26 05:57:57;;;;;;;6.90;3.50;;;;;;;24.81;45.36;100570.98;105259;1276;94272;-89
2022/06/26 06:00:43;;;;;;;6.70;3.60;;;;;;;24.86;46.55;100573.13;105533;1276;138111;-88
2022/06/26 06:03:13;;;;;;;6.40;3.50;;;;;;;24.93;46.02;100573.57;105464;1276;97241;-89
2022/06/26 06:05:41;;;;;;;6.70;3.40;;;;;;;24.98;44.99;100578.23;105249;1276;138184;-88
2022/06/26 06:08:11;;;;;;;7.60;3.80;;;;;;;25.05;45.23;100583.89;105467;1276;94842;-90
2022/06/26 06:11:01;;;;;;;6.60;3.60;;;;;;;25.11;46.29;100581.50;105564;1276;95413;-88
2022/06/26 06:13:33;;;;;;;8.40;4.00;;;;;;;25.19;46.24;100586.45;105467;1276;138005;-88
2022/06/26 06:16:02;;;;;;;6.90;3.60;;;;;;;25.26;45.98;100590.02;105320;1277;98344;-89
2022/06/26 06:19:07;;;;;;;5.90;3.60;;;;;;;25.30;44.50;100590.06;105590;1276;137559;-89
2022/06/26 06:21:58;;;;;;;6.60;3.80;;;;;;;25.37;45.51;100593.67;105408;1275;94356;-88
2022/06/26 06:24:27;;;;;;;6.70;3.80;;;;;;;25.46;45.68;100593.85;105366;1276;138645;-88
2022/06/26 06:26:59;;;;;;;6.00;3.50;;;;;;;25.49;44.37;100592.89;105475;1276;107888;-89
2022/06/26 06:29:29;;;;;;;6.60;3.50;;;;;;;25.48;43.65;100596.19;105287;1276;138883;-89
2022/06/26 06:31:58;;;;;;;8.30;3.40;;;;;;;25.54;44.13;100596.43;105601;1276;108266;-87
2022/06/26 06:35:04;;;;;;;6.40;3.80;;;;;;;25.57;43.97;100598.88;105370;1276;94756;-91
2022/06/26 06:37:58;;;;;;;6.10;3.50;;;;;;;25.61;43.54;100597.27;105335;1276;94323;-91
2022/06/26 06:40:50;;;;;;;6.40;3.30;;;;;;;25.67;44.20;100599.08;105452;1276;107483;-90
2022/06/26 06:43:23;;;;;;;5.90;3.40;;;;;;;25.76;44.89;100601.27;105338;1276;138510;-89
2022/06/26 06:46:10;;;;;;;6.10;3.20;;;;;;;25.85;43.63;100601.55;105202;1276;107929;-89
2022/06/26 06:49:05;;;;;;;6.60;3.50;;;;;;;25.92;43.10;100607.67;105032;1276;139384;-90
2022/06/26 06:51:41;;;;;;;6.50;3.30;;;;;;;26.00;44.07;100611.02;105490;1276;94324;-88
2022/06/26 06:54:11;;;;;;;7.80;3.30;;;;;;;26.08;44.23;100608.68;105252;1276;138012;-88
2022/06/26 06:56:41;;;;;;;5.50;2.80;;;;;;;26.14;41.32;100607.23;105408;1278;98874;-92
2022/06/26 06:59:09;;;;;;;6.50;2.80;;;;;;;26.16;40.84;100607.59;105283;1277;107829;-89
2022/06/26 07:01:45;;;;;;;6.90;3.00;;;;;;;26.21;41.34;100607.40;105294;1276;138782;-88
2022/06/26 07:04:19;;;;;;;7.10;3.10;;;;;;;26.30;41.63;100610.02;105238;1279;94397;-88
2022/06/26 07:06:48;;;;;;;5.60;3.10;;;;;;;26.39;41.95;100609.95;105201;1276;137731;-89
2022/06/26 07:09:18;;;;;;;6.70;3.00;;;;;;;26.48;42.51;100608.80;104976;1276;98907;-91
2022/06/26 07:11:51;;;;;;;7.30;2.90;;;;;;;26.56;40.94;100608.98;104925;1278;138164;-90
2022/06/26 07:14:33;;;;;;;5.40;2.80;;;;;;;26.64;40.47;100607.51;104959;1278;94607;-89
2022/06/26 07:17:01;;;;;;;6.20;3.00;;;;;;;26.68;39.85;100608.43;105250;1276;94312;-91
2022/06/26 07:19:33;;;;;;;5.80;2.80;;;;;;;26.75;40.09;100609.64;105128;1277;139305;-89
2022/06/26 07:22:01;;;;;;;6.00;2.80;;;;;;;26.83;40.66;100605.11;105170;1276;99500;-89
2022/06/26 07:24:29;;;;;;;5.20;2.90;;;;;;;26.93;40.23;100605.61;105120;1277;138248;-91
2022/06/26 07:27:36;;;;;;;4.70;2.30;;;;;;;27.04;38.81;100608.30;105206;1276;94454;-91
2022/06/26 07:30:08;;;;;;;6.40;2.80;;;;;;;27.08;37.90;100611.38;105061;1277;138245;-88
2022/06/26 07:32:44;;;;;;;6.20;2.60;;;;;;;27.14;38.52;100606.78;105088;1279;106357;-90
2022/06/26 07:35:16;;;;;;;6.10;2.70;;;;;;;27.24;39.12;100603.70;105072;1276;96378;-90
2022/06/26 07:37:46;;;;;;;6.30;2.50;;;;;;;27.31;38.69;100603.04;105366;1277;138076;-90
2022/06/26 07:40:16;;;;;;;5.90;2.50;;;;;;;27.37;38.23;100602.85;105156;1279;94433;-89
2022/06/26 07:42:46;;;;;;;5.90;2.70;;;;;;;27.43;38.19;100608.34;105359;1276;138293;-90
2022/06/26 07:45:17;;;;;;;5.40;2.60;;;;;;;27.49;36.63;100606.31;105035;1277;109169;-90
2022/06/26 07:47:58;;;;;;;5.50;2.40;;;;;;;27.54;36.96;100608.20;105207;1277;138241;-90
2022/06/26 07:50:35;;;;;;;4.70;2.60;;;;;;;27.59;36.85;100608.84;105176;1276;107447;-92
2022/06/26 07:53:38;;;;;;;6.20;3.70;;;;;;;27.65;36.23;100607.13;105318;1277;94700;-90
2022/06/26 07:56:30;;;;;;;5.40;2.30;;;;;;;27.61;36.24;100603.33;105212;1276;165068;-91
2022/06/26 07:59:02;;;;;;;6.60;2.40;;;;;;;27.64;35.54;100603.09;105398;1277;107331;-92
2022/06/26 08:01:32;;;;;;;5.20;2.20;;;;;;;27.66;35.76;100603.77;105056;1277;138563;-91
2022/06/26 08:04:01;;;;;;;6.50;2.50;;;;;;;27.71;36.22;100599.27;105196;1276;109785;-90
2022/06/26 08:06:30;;;;;;;5.60;2.70;;;;;;;27.79;36.80;100601.39;105009;1276;138322;-87
2022/06/26 08:09:33;;;;;;;5.50;2.30;;;;;;;27.90;35.96;100610.06;105327;1276;94661;-89
2022/06/26 08:12:01;;;;;;;5.70;2.40;;;;;;;27.93;35.71;100608.73;105305;1276;138248;-89
2022/06/26 08:14:33;;;;;;;6.40;2.60;;;;;;;28.00;36.57;100608.08;105369;1276;98636;-89
2022/06/26 08:17:02;;;;;;;5.20;2.40;;;;;;;28.12;36.37;100605.45;106119;1276;107754;-89
2022/06/26 08:19:30;;;;;;;6.90;2.50;;;;;;;28.17;35.05;100605.52;106847;1276;137542;-89
2022/06/26 08:22:02;;;;;;;5.00;2.30;;;;;;;28.23;35.60;100604.77;107425;1276;92166;-92
2022/06/26 08:24:39;;;;;;;5.00;2.50;;;;;;;28.32;36.41;100602.34;107559;1276;137146;-90
2022/06/26 08:27:09;;;;;;;4.50;2.10;;;;;;;28.45;36.23;100600.89;106829;1276;97094;-89
2022/06/26 08:30:01;;;;;;;4.80;2.40;;;;;;;28.64;36.90;100604.70;105400;1275;138747;-90
2022/06/26 08:32:54;;;;;;;5.60;2.40;;;;;;;28.81;35.91;100604.72;105319;1276;94366;-92
2022/06/26 08:35:23;;;;;;;6.40;2.50;;;;;;;28.91;34.24;100609.96;105303;1276;94240;-93
2022/06/26 08:37:51;;;;;;;5.70;3.20;;;;;;;29.06;34.03;100608.96;105248;1278;138420;-90
2022/06/26 08:40:42;;;;;;;5.70;3.00;;;;;;;29.18;33.39;100609.76;106286;1276;98651;-90
2022/06/26 08:43:13;;;;;;;6.40;2.40;;;;;;;29.23;33.69;100611.84;106503;1274;139019;-90
2022/06/26 08:46:04;;;;;;;6.00;2.50;;;;;;;29.29;32.91;100610.27;106421;1276;94360;-92
2022/06/26 08:49:04;;;;;;;4.30;2.00;;;;;;;29.33;31.92;100613.05;105434;1275;138567;-91
2022/06/26 08:51:44;;;;;;;5.40;2.10;;;;;;;29.33;32.02;100610.56;105702;1275;107026;-90
2022/06/26 08:54:18;;;;;;;4.60;2.10;;;;;;;29.37;31.87;100616.86;105470;1274;137935;-90
2022/06/26 08:56:48;;;;;;;6.20;2.70;;;;;;;29.39;32.27;100611.11;105261;1277;107714;-89
2022/06/26 08:59:18;;;;;;;4.90;2.00;;;;;;;29.49;31.83;100612.30;105694;1274;94269;-90
2022/06/26 09:01:49;;;;;;;7.00;4.20;;;;;;;29.55;31.95;100609.98;105312;1275;136669;-93
2022/06/26 09:04:41;;;;;;;5.00;2.30;;;;;;;29.75;32.57;100614.32;105499;1275;107320;-90
2022/06/26 09:07:31;;;;;;;5.20;2.30;;;;;;;29.89;31.80;100612.04;105309;1274;138696;-90
2022/06/26 09:10:09;;;;;;;5.60;2.40;;;;;;;29.92;30.40;100604.23;105314;1276;107464;-92
2022/06/26 09:12:58;;;;;;;5.50;2.10;;;;;;;29.95;30.63;100608.44;105232;1277;138942;-91
2022/06/26 09:15:39;;;;;;;4.50;2.00;;;;;;;29.93;30.62;100610.29;105423;1277;94333;-91
2022/06/26 09:19:12;;;;;;;4.90;2.10;;;;;;;30.05;30.77;100606.86;105128;1275;138038;-90
2022/06/26 09:21:49;;;;;;;4.80;2.40;;;;;;;30.61;30.66;100607.13;105522;1274;98317;-89
2022/06/26 09:24:56;;;;;;;7.40;3.80;;;;;;;31.08;28.35;100605.18;105265;1277;138774;-91
2022/06/26 09:27:25;;;;;;;5.50;3.20;;;;;;;31.85;27.86;100605.51;105556;1274;94588;-92
2022/06/26 09:29:56;;;;;;;4.80;1.90;;;;;;;32.55;26.40;100600.04;105629;1275;137632;-92
2022/06/26 09:33:09;;;;;;;12.10;9.50;;;;;;;33.36;25.89;100606.00;105729;1274;109035;-91
2022/06/26 09:35:38;;;;;;;5.90;2.60;;;;;;;34.16;24.95;100606.23;105323;1276;97289;-93
2022/06/26 09:38:08;;;;;;;5.30;2.20;;;;;;;34.78;23.65;100606.27;105284;1275;140434;-93
2022/06/26 09:40:50;;;;;;;4.10;1.80;;;;;;;35.36;23.15;100599.73;105620;1274;94664;-89
2022/06/26 09:43:36;;;;;;;5.80;1.80;;;;;;;35.67;22.05;100606.86;105508;1276;137861;-88
2022/06/26 09:46:29;;;;;;;4.80;2.00;;;;;;;35.98;21.95;100601.47;105617;1277;107426;-90
2022/06/26 09:49:01;;;;;;;4.40;1.90;;;;;;;36.60;21.39;100599.70;105457;1276;138272;-90
2022/06/26 09:51:32;;;;;;;5.60;2.10;;;;;;;37.06;21.28;100602.03;105652;1274;110130;-92
2022/06/26 09:54:06;;;;;;;5.90;1.90;;;;;;;37.67;21.24;100608.14;105256;1277;139105;-90
2022/06/26 09:56:35;;;;;;;4.70;1.70;;;;;;;38.22;20.42;100602.13;105480;1278;94650;-90
2022/06/26 09:59:23;;;;;;;4.80;2.00;;;;;;;38.54;19.83;100599.33;105393;1277;108053;-92
2022/06/26 10:07:26;;;;;;;4.80;2.00;;;;;;;38.93;19.44;100584.89;105676;1275;138731;-88
2022/06/26 10:09:54;;;;;;;4.20;1.70;;;;;;;39.10;18.69;100585.69;105327;1275;94882;-89
2022/06/26 10:12:23;;;;;;;4.40;1.80;;;;;;;39.14;19.14;100586.83;105391;1274;138613;-91
2022/06/26 10:14:55;;;;;;;4.20;1.90;;;;;;;39.59;18.97;100585.67;105791;1275;98617;-90
2022/06/26 10:17:42;;;;;;;4.50;1.60;;;;;;;40.06;18.99;100579.30;105772;1274;108796;-90
2022/06/26 10:20:19;;;;;;;3.90;1.60;;;;;;;40.25;17.95;100583.27;105540;1274;140220;-90
2022/06/26 10:22:48;;;;;;;4.40;1.60;;;;;;;39.86;17.43;100581.10;105466;1275;95041;-90
2022/06/26 10:25:44;;;;;;;5.50;1.70;;;;;;;40.00;18.29;100578.13;105600;1275;138788;-91
2022/06/26 10:28:19;;;;;;;5.20;1.70;;;;;;;40.60;17.38;100575.41;105626;1277;98807;-90
2022/06/26 10:30:47;;;;;;;4.10;1.80;;;;;;;40.41;17.15;100577.11;105339;1274;138626;-90
2022/06/26 10:33:18;;;;;;;4.30;1.60;;;;;;;40.13;17.47;100578.16;105294;1277;94326;-91
2022/06/26 10:35:57;;;;;;;3.60;1.40;;;;;;;39.68;17.45;100582.75;105470;1275;138785;-90
2022/06/26 10:38:30;;;;;;;5.00;1.70;;;;;;;39.41;17.71;100581.31;105192;1277;108856;-90
2022/06/26 10:44:12;;;;;;;4.30;1.60;;;;;;;39.77;18.03;100573.97;105247;1274;138232;-90
2022/06/26 10:46:50;;;;;;;4.20;1.70;;;;;;;39.78;18.30;100569.92;105246;1277;95065;-90
2022/06/26 10:49:19;;;;;;;4.20;1.70;;;;;;;40.34;18.63;100568.09;105184;1274;137649;-90
2022/06/26 10:51:47;;;;;;;9.30;7.40;;;;;;;40.77;18.39;100570.42;105194;1275;107155;-89
2022/06/26 10:54:23;;;;;;;4.80;1.80;;;;;;;40.85;17.68;100568.02;105287;1274;138895;-91
2022/06/26 10:57:15;;;;;;;5.60;1.90;;;;;;;40.67;17.85;100571.60;104956;1277;108067;-91
2022/06/26 10:59:45;;;;;;;14.30;12.40;;;;;;;41.12;17.99;100573.23;105214;1277;94089;-92
2022/06/26 11:02:13;;;;;;;5.70;3.40;;;;;;;41.22;17.23;100570.88;105200;1277;94327;-89
2022/06/26 11:04:47;;;;;;;4.20;1.80;;;;;;;41.37;16.84;100572.27;105369;1275;109179;-89
2022/06/26 11:07:16;;;;;;;4.70;2.00;;;;;;;40.81;17.92;100572.32;105333;1274;138208;-89
2022/06/26 11:09:44;;;;;;;4.80;1.80;;;;;;;39.84;18.23;100574.79;105384;1277;109675;-90
2022/06/26 11:12:13;;;;;;;5.80;1.90;;;;;;;38.81;19.20;100578.27;105429;1275;139241;-89
2022/06/26 11:14:46;;;;;;;4.00;1.80;;;;;;;37.90;19.95;100571.23;105525;1275;94802;-93
2022/06/26 11:17:14;;;;;;;4.70;1.90;;;;;;;37.03;20.75;100569.63;105771;1275;107491;-92
2022/06/26 11:22:28;;;;;;;4.10;1.60;;;;;;;35.72;22.64;100569.36;105721;1278;109777;-90
2022/06/26 11:24:59;;;;;;;4.20;1.90;;;;;;;35.37;22.73;100573.73;105816;1274;138053;-89
2022/06/26 11:27:29;;;;;;;5.10;2.00;;;;;;;34.71;23.33;100574.94;105628;1276;94220;-92
2022/06/26 11:30:21;;;;;;;4.10;1.90;;;;;;;34.18;24.30;100570.83;105662;1275;138441;-90
2022/06/26 11:33:08;;;;;;;4.90;2.10;;;;;;;33.82;25.28;100577.83;105501;1274;98646;-90
2022/06/26 11:35:41;;;;;;;4.30;2.10;;;;;;;33.64;24.89;100581.45;105728;1274;107910;-91
2022/06/26 11:38:15;;;;;;;4.50;2.20;;;;;;;33.20;24.75;100581.31;105791;1277;140949;-90
2022/06/26 11:41:07;;;;;;;4.60;2.10;;;;;;;32.72;25.43;100568.66;105975;1275;94322;-93
2022/06/26 11:43:46;;;;;;;5.60;2.00;;;;;;;32.55;26.54;100564.03;105873;1277;140470;-91
2022/06/26 11:46:15;;;;;;;5.50;2.10;;;;;;;32.53;26.31;100564.66;105737;1277;97147;-91
2022/06/26 11:48:48;;;;;;;5.40;2.40;;;;;;;32.45;27.05;100564.98;105618;1277;141760;-92
2022/06/26 11:51:18;;;;;;;5.40;2.00;;;;;;;32.31;26.91;100563.11;105803;1275;94331;-91
2022/06/26 11:53:51;;;;;;;9.10;6.10;;;;;;;32.13;26.50;100562.48;105805;1275;94915;-91
2022/06/26 11:56:24;;;;;;;5.60;2.10;;;;;;;31.88;27.27;100565.29;106138;1274;106169;-90
2022/06/26 11:58:56;;;;;;;4.60;2.00;;;;;;;31.65;27.62;100562.52;105765;1275;98912;-88
2022/06/26 12:01:34;;;;;;;4.50;2.00;;;;;;;31.53;27.75;100566.12;105627;1274;137704;-91
2022/06/26 12:04:07;;;;;;;5.30;1.90;;;;;;;31.50;28.06;100566.82;105974;1274;94353;-91